ムンバイ の空港の天気 - METARとTAF

チャットラパティー・シヴァージー国際空港 ( VABB / BOM ) - インド ムンバイ
飛行場実況気象(Metar)
観測時間02/17 20:00 IST (02/17 14:30 UTC)
風向・風速北西 3m/s
視程4000m
天気現象煙霧
なし
気温24℃
湿度65%
気圧1013hPa
METARVABB 171430Z 31006KT 4000 HZ NSC 24/17 Q1013 NOSIG
過去の天気等 Google飛行場航空写真 Wunderground天気予報

過去48時間のMETAR

飛行場予報(TAF)
発表時間: 2/17 16:30 IST (2/17 11:00 UTC)
予報対象時間: 17日17時 IST ~ 18日23時 IST
風向・風速北西 3m/s
視程5000m
天気現象
なし
17日20時 IST ~ 17日22時 IST に徐々に
視程4000m
天気現象
17日23時 IST ~ 18日1時 IST に徐々に
風向・風速不定 2m/s
視程3000m
天気現象
18日5時 IST ~ 18日7時 IST に徐々に
風向・風速静穏
視程2000m
天気現象
18日8時 IST ~ 18日10時 IST に徐々に
風向・風速東 3m/s
視程3000m
天気現象
18日11時 IST ~ 18日13時 IST に徐々に
風向・風速西 4m/s
視程4000m
天気現象
18日14時 IST ~ 18日16時 IST に徐々に
視程5000m
天気現象
18日18時 IST ~ 18日20時 IST に徐々に
風向・風速北北西 3m/s
視程4000m
天気現象
TAF VABB 171100Z 1712/1818 32006KT 5000 FU NSC
BECMG 1715/1717 4000 FU
BECMG 1718/1720 VRB03KT 3000 FU
BECMG 1800/1802 00000KT 2000 FU
BECMG 1803/1805 09005KT 3000 FU
BECMG 1806/1808 26008KT 4000 FU
BECMG 1809/1811 5000 FU
BECMG 1813/1815 33005KT 4000 FU